createdAt,value
2022-09-25T00:01:10.488Z,3.55
2022-09-25T00:03:37.695Z,4.30
2022-09-25T00:06:06.661Z,4.50
2022-09-25T00:08:34.284Z,3.97
2022-09-25T00:11:06.047Z,4.85
2022-09-25T00:13:32.867Z,4.28
2022-09-25T00:16:01.236Z,4.38
2022-09-25T00:18:28.164Z,4.20
2022-09-25T00:21:00.614Z,3.42
2022-09-25T00:23:27.370Z,3.85
2022-09-25T00:25:54.442Z,4.47
2022-09-25T00:28:21.169Z,4.25
2022-09-25T00:30:47.897Z,4.40
2022-09-25T00:33:16.039Z,3.90
2022-09-25T00:35:42.764Z,3.95
2022-09-25T00:38:09.504Z,4.00
2022-09-25T00:40:36.321Z,4.25
2022-09-25T00:43:03.068Z,5.20
2022-09-25T00:45:29.896Z,5.88
2022-09-25T00:48:00.576Z,5.40
2022-09-25T00:50:33.813Z,6.03
2022-09-25T00:53:06.914Z,3.83
2022-09-25T00:55:35.892Z,5.40
2022-09-25T00:58:04.404Z,5.60
2022-09-25T01:00:32.683Z,6.65
2022-09-25T01:02:59.576Z,6.72
2022-09-25T01:05:31.098Z,5.70
2022-09-25T01:08:01.125Z,5.60
2022-09-25T01:10:28.340Z,5.40
2022-09-25T01:12:57.029Z,5.85
2022-09-25T01:15:31.239Z,7.07
2022-09-25T01:20:50.493Z,8.32
2022-09-25T01:23:27.402Z,8.93
2022-09-25T01:26:14.944Z,9.45
2022-09-25T01:28:55.661Z,8.48
2022-09-25T01:31:27.493Z,10.13
2022-09-25T01:33:59.799Z,10.07
2022-09-25T01:36:29.592Z,10.23
2022-09-25T01:39:02.943Z,10.25
2022-09-25T01:41:37.518Z,5.73
2022-09-25T01:44:12.166Z,6.50
2022-09-25T01:46:45.671Z,6.68
2022-09-25T01:49:18.140Z,7.07
2022-09-25T01:51:49.788Z,7.63
2022-09-25T01:54:20.958Z,9.82
2022-09-25T01:56:52.479Z,9.63
2022-09-25T01:59:25.842Z,10.90
2022-09-25T02:01:54.821Z,10.90
2022-09-25T02:04:25.908Z,10.20
2022-09-25T02:06:55.894Z,9.25
2022-09-25T02:09:26.028Z,8.70
2022-09-25T02:11:58.118Z,11.32
2022-09-25T02:14:31.887Z,11.40
2022-09-25T02:17:01.010Z,11.48
2022-09-25T02:19:27.886Z,10.93
2022-09-25T02:22:02.824Z,11.82
2022-09-25T02:24:38.143Z,10.52
2022-09-25T02:27:04.953Z,10.85
2022-09-25T02:29:33.325Z,10.60
2022-09-25T02:32:04.832Z,10.75
2022-09-25T02:34:31.763Z,10.88
2022-09-25T02:36:58.493Z,10.05
2022-09-25T02:39:28.708Z,10.40
2022-09-25T02:42:13.804Z,10.50
2022-09-25T02:44:56.509Z,9.18
2022-09-25T02:47:31.172Z,9.32
2022-09-25T02:50:07.678Z,9.98
2022-09-25T02:52:40.456Z,9.25
2022-09-25T02:55:12.745Z,9.88
2022-09-25T02:57:45.321Z,10.73
2022-09-25T03:00:14.223Z,10.88
2022-09-25T03:02:42.379Z,9.73
2022-09-25T03:05:13.565Z,9.63
2022-09-25T03:07:41.079Z,10.88
2022-09-25T03:10:08.747Z,11.40
2022-09-25T03:12:36.465Z,10.85
2022-09-25T03:15:03.440Z,10.75
2022-09-25T03:17:31.564Z,11.45
2022-09-25T03:19:58.280Z,11.38
2022-09-25T03:22:25.013Z,10.73
2022-09-25T03:24:51.814Z,11.00
2022-09-25T03:27:18.520Z,9.88
2022-09-25T03:29:45.258Z,11.10
2022-09-25T03:32:11.975Z,11.07
2022-09-25T03:34:40.176Z,10.55
2022-09-25T03:37:07.035Z,10.85
2022-09-25T03:39:33.746Z,9.75
2022-09-25T03:42:00.480Z,10.48
2022-09-25T03:44:27.183Z,9.93
2022-09-25T03:46:53.894Z,10.10
2022-09-25T03:49:20.597Z,10.45
2022-09-25T03:51:48.699Z,10.20
2022-09-25T03:54:15.618Z,9.63
2022-09-25T03:56:42.343Z,10.35
2022-09-25T03:59:09.082Z,10.65
2022-09-25T04:01:35.903Z,10.27
2022-09-25T04:04:02.641Z,11.00
2022-09-25T04:06:29.369Z,10.38
2022-09-25T04:08:57.451Z,10.30
2022-09-25T04:11:25.221Z,11.27
2022-09-25T04:13:52.239Z,9.23
2022-09-25T04:16:19.368Z,10.27
2022-09-25T04:18:46.202Z,10.55
2022-09-25T04:21:14.332Z,10.52
2022-09-25T04:23:41.685Z,10.73
2022-09-25T04:26:09.874Z,10.23
2022-09-25T04:28:37.071Z,10.93
2022-09-25T04:31:04.669Z,11.25
2022-09-25T04:33:31.855Z,9.57
2022-09-25T04:35:58.787Z,9.77
2022-09-25T04:38:25.651Z,10.07
2022-09-25T04:40:52.531Z,10.02
2022-09-25T04:43:20.638Z,9.90
2022-09-25T04:45:47.458Z,9.85
2022-09-25T04:48:14.234Z,8.82
2022-09-25T04:50:47.568Z,7.82
2022-09-25T04:53:14.285Z,8.97
2022-09-25T04:55:41.098Z,7.90
2022-09-25T04:58:09.718Z,8.25
2022-09-25T05:00:37.877Z,7.68
2022-09-25T05:03:05.246Z,8.13
2022-09-25T05:05:32.500Z,8.93
2022-09-25T05:08:01.078Z,8.40
2022-09-25T05:10:29.537Z,9.20
2022-09-25T05:12:56.685Z,8.52
2022-09-25T05:15:23.478Z,9.18
2022-09-25T05:17:59.824Z,7.70
2022-09-25T05:20:26.531Z,7.78
2022-09-25T05:22:54.767Z,8.07
2022-09-25T05:25:21.511Z,7.72
2022-09-25T05:27:48.238Z,7.22
2022-09-25T05:30:15.018Z,8.35
2022-09-25T05:32:47.575Z,8.68
2022-09-25T05:35:16.434Z,8.18
2022-09-25T05:37:43.149Z,7.30
2022-09-25T05:40:10.801Z,8.65
2022-09-25T05:42:37.561Z,7.78
2022-09-25T05:45:07.519Z,7.35
2022-09-25T05:47:34.540Z,8.32
2022-09-25T05:50:01.279Z,7.78
2022-09-25T05:52:29.332Z,7.95
2022-09-25T05:54:56.119Z,7.82
2022-09-25T05:57:22.938Z,7.82
2022-09-25T05:59:49.867Z,8.23
2022-09-25T06:02:16.962Z,7.85
2022-09-25T06:04:43.683Z,8.32
2022-09-25T06:07:10.407Z,8.70
2022-09-25T06:09:38.489Z,8.38
2022-09-25T06:12:05.397Z,8.35
2022-09-25T06:14:32.138Z,9.05
2022-09-25T06:16:58.852Z,8.05
2022-09-25T06:19:25.756Z,8.73
2022-09-25T06:21:52.470Z,7.43
2022-09-25T06:24:19.184Z,6.47
2022-09-25T06:26:47.518Z,7.97
2022-09-25T06:29:14.273Z,7.00
2022-09-25T06:31:41.101Z,7.25
2022-09-25T06:34:08.943Z,8.30
2022-09-25T06:36:35.739Z,6.97
2022-09-25T06:39:02.605Z,7.78
2022-09-25T06:41:29.345Z,7.40
2022-09-25T06:43:57.415Z,7.10
2022-09-25T06:46:24.219Z,6.53
2022-09-25T06:48:51.792Z,7.22
2022-09-25T06:51:18.577Z,6.43
2022-09-25T06:53:45.398Z,7.40
2022-09-25T06:56:12.201Z,7.55
2022-09-25T06:58:39.131Z,7.85
2022-09-25T07:01:09.888Z,7.85
2022-09-25T07:03:36.774Z,7.68
2022-09-25T07:06:05.625Z,7.05
2022-09-25T07:08:32.358Z,8.32
2022-09-25T07:10:59.711Z,8.05
2022-09-25T07:13:27.867Z,8.93
2022-09-25T07:15:55.946Z,8.63
2022-09-25T07:18:25.297Z,9.70
2022-09-25T07:20:52.644Z,8.60
2022-09-25T07:23:21.801Z,9.57
2022-09-25T07:25:49.279Z,8.63
2022-09-25T07:28:16.892Z,8.80
2022-09-25T07:30:43.966Z,8.90
2022-09-25T07:33:10.763Z,8.40
2022-09-25T07:35:38.815Z,9.20
2022-09-25T07:38:05.921Z,8.10
2022-09-25T07:40:32.795Z,8.20
2022-09-25T07:42:59.802Z,9.27
2022-09-25T07:45:27.177Z,9.63
2022-09-25T07:47:56.169Z,9.68
2022-09-25T07:50:23.036Z,9.68
2022-09-25T07:52:51.159Z,9.88
2022-09-25T07:55:18.042Z,10.68
2022-09-25T07:57:44.817Z,11.15
2022-09-25T08:00:13.177Z,10.32
2022-09-25T08:02:39.998Z,9.98
2022-09-25T08:05:08.267Z,10.95
2022-09-25T08:07:35.207Z,10.60
2022-09-25T08:10:03.858Z,10.98
2022-09-25T08:12:30.661Z,10.10
2022-09-25T08:14:57.378Z,10.73
2022-09-25T08:17:24.133Z,11.55
2022-09-25T08:19:50.900Z,9.80
2022-09-25T08:22:17.759Z,10.00
2022-09-25T08:24:44.461Z,10.65
2022-09-25T08:27:12.524Z,9.80
2022-09-25T08:29:39.208Z,9.88
2022-09-25T08:32:06.047Z,9.98
2022-09-25T08:34:41.425Z,9.98
2022-09-25T08:37:09.057Z,9.35
2022-09-25T08:39:35.939Z,9.80
2022-09-25T08:42:03.383Z,9.50
2022-09-25T08:44:38.481Z,10.07
2022-09-25T08:47:10.679Z,9.85
2022-09-25T08:49:41.354Z,9.68
2022-09-25T08:52:13.507Z,9.93
2022-09-25T08:54:43.398Z,9.88
2022-09-25T08:57:33.368Z,9.52
2022-09-25T09:00:04.591Z,10.35
2022-09-25T09:02:38.769Z,9.90
2022-09-25T09:07:37.892Z,8.63
2022-09-25T09:10:13.766Z,9.52
2022-09-25T09:12:44.761Z,9.10
2022-09-25T09:15:24.733Z,8.88
2022-09-25T09:17:53.585Z,9.43
2022-09-25T09:20:27.486Z,9.88
2022-09-25T09:22:56.435Z,8.88
2022-09-25T09:25:27.637Z,9.10
2022-09-25T09:28:11.414Z,9.25
2022-09-25T09:30:46.941Z,9.60
2022-09-25T09:33:40.603Z,9.07
2022-09-25T09:36:15.943Z,9.25
2022-09-25T09:38:49.468Z,10.15
2022-09-25T09:41:27.959Z,9.48
2022-09-25T09:44:18.791Z,9.57
2022-09-25T09:46:53.796Z,8.88
2022-09-25T09:49:26.920Z,8.25
2022-09-25T09:52:00.580Z,9.32
2022-09-25T09:54:33.545Z,8.73
2022-09-25T09:57:03.809Z,8.18
2022-09-25T09:59:44.401Z,9.38
2022-09-25T10:02:24.235Z,8.50
2022-09-25T10:04:53.782Z,8.63
2022-09-25T10:07:23.140Z,8.73
2022-09-25T10:09:50.730Z,8.57
2022-09-25T10:12:26.153Z,9.07
2022-09-25T10:14:53.024Z,9.10
2022-09-25T10:17:22.246Z,9.77
2022-09-25T10:19:53.081Z,7.32
2022-09-25T10:22:22.028Z,7.57
2022-09-25T10:24:54.316Z,9.18
2022-09-25T10:27:30.188Z,8.18
2022-09-25T10:30:17.930Z,7.93
2022-09-25T10:32:57.530Z,7.63
2022-09-25T10:35:27.480Z,8.98
2022-09-25T10:37:56.945Z,8.23
2022-09-25T10:40:27.488Z,8.90
2022-09-25T10:43:16.294Z,7.30
2022-09-25T10:45:43.354Z,7.28
2022-09-25T10:48:30.896Z,6.57
2022-09-25T10:51:06.904Z,7.25
2022-09-25T10:53:33.680Z,7.25
2022-09-25T10:56:04.269Z,7.50
2022-09-25T10:58:36.134Z,6.88
2022-09-25T11:01:04.668Z,6.50
2022-09-25T11:03:35.311Z,7.97
2022-09-25T11:06:04.608Z,8.30
2022-09-25T11:08:37.263Z,7.68
2022-09-25T11:11:04.668Z,7.53
2022-09-25T11:13:49.768Z,7.30
2022-09-25T11:16:16.876Z,6.18
2022-09-25T11:18:46.631Z,8.05
2022-09-25T11:21:23.910Z,7.18
2022-09-25T11:24:12.261Z,7.22
2022-09-25T11:26:44.815Z,6.35
2022-09-25T11:29:17.733Z,7.68
2022-09-25T11:31:50.619Z,7.45
2022-09-25T11:34:32.928Z,7.15
2022-09-25T11:37:04.247Z,6.72
2022-09-25T11:39:40.537Z,8.02
2022-09-25T11:42:14.346Z,7.20
2022-09-25T11:44:47.180Z,7.65
2022-09-25T11:47:21.278Z,7.30
2022-09-25T11:49:52.455Z,8.13
2022-09-25T11:52:33.096Z,7.60
2022-09-25T11:55:43.657Z,7.97
2022-09-25T11:58:54.543Z,5.57
2022-09-25T12:01:29.458Z,5.95
2022-09-25T12:04:29.072Z,6.05
2022-09-25T12:07:16.671Z,7.30
2022-09-25T12:10:07.233Z,6.40
2022-09-25T12:12:40.278Z,6.90
2022-09-25T12:15:16.729Z,6.28
2022-09-25T12:17:51.308Z,6.88
2022-09-25T12:20:25.859Z,7.88
2022-09-25T12:23:06.294Z,6.45
2022-09-25T12:25:50.582Z,7.30
2022-09-25T12:28:29.543Z,7.00
2022-09-25T12:31:06.283Z,6.85
2022-09-25T12:33:40.373Z,6.95
2022-09-25T12:36:12.590Z,6.57
2022-09-25T12:38:45.673Z,7.78
2022-09-25T12:41:18.549Z,7.05
2022-09-25T12:43:50.004Z,6.82
2022-09-25T12:46:23.341Z,7.72
2022-09-25T12:48:52.967Z,8.30
2022-09-25T12:51:24.638Z,7.13
2022-09-25T12:53:57.651Z,6.90
2022-09-25T12:56:27.451Z,6.30
2022-09-25T12:59:05.705Z,6.38
2022-09-25T13:01:42.482Z,5.78
2022-09-25T13:04:27.797Z,6.45
2022-09-25T13:07:02.451Z,6.38
2022-09-25T13:09:36.096Z,6.40
2022-09-25T13:12:08.636Z,5.43
2022-09-25T13:14:38.533Z,5.88
2022-09-25T13:17:06.457Z,6.15
2022-09-25T13:19:33.187Z,5.60
2022-09-25T13:22:02.769Z,5.65
2022-09-25T13:24:31.038Z,6.30
2022-09-25T13:27:01.354Z,5.20
2022-09-25T13:29:31.052Z,5.28
2022-09-25T13:32:04.676Z,5.70
2022-09-25T13:34:37.306Z,5.13
2022-09-25T13:37:07.195Z,5.43
2022-09-25T13:39:37.025Z,5.40
2022-09-25T13:42:12.774Z,5.22
2022-09-25T13:44:56.008Z,6.00
2022-09-25T13:48:06.938Z,5.32
2022-09-25T13:50:39.975Z,5.10
2022-09-25T13:53:47.597Z,6.03
2022-09-25T13:56:25.307Z,5.32
2022-09-25T13:59:24.383Z,4.97
2022-09-25T14:01:54.466Z,5.38
2022-09-25T14:04:30.339Z,5.07
2022-09-25T14:07:06.026Z,4.78
2022-09-25T14:09:34.518Z,3.65
2022-09-25T14:12:09.928Z,5.47
2022-09-25T14:14:43.918Z,4.78
2022-09-25T14:17:14.172Z,3.95
2022-09-25T14:19:44.091Z,4.15
2022-09-25T14:22:19.081Z,4.75
2022-09-25T14:24:45.789Z,5.55
2022-09-25T14:27:21.096Z,4.45
2022-09-25T14:29:49.738Z,5.53
2022-09-25T14:32:53.995Z,4.68
2022-09-25T14:35:33.126Z,5.50
2022-09-25T14:38:22.229Z,4.80
2022-09-25T14:41:02.898Z,4.40
2022-09-25T14:43:44.052Z,4.95
2022-09-25T14:46:14.633Z,4.07
2022-09-25T14:48:45.654Z,4.47
2022-09-25T14:51:25.527Z,3.95
2022-09-25T14:53:55.034Z,4.35
2022-09-25T14:56:22.422Z,4.05
2022-09-25T14:58:52.651Z,4.22
2022-09-25T15:01:26.474Z,4.63
2022-09-25T15:03:56.061Z,3.78
2022-09-25T15:06:28.167Z,5.28
2022-09-25T15:08:55.679Z,7.28
2022-09-25T15:11:24.402Z,5.93
2022-09-25T15:13:51.122Z,10.77
2022-09-25T15:16:20.491Z,19.98
2022-09-25T15:18:53.698Z,9.07
2022-09-25T15:21:24.923Z,6.18
2022-09-25T15:23:53.187Z,7.70
2022-09-25T15:26:21.387Z,7.35
2022-09-25T15:28:48.602Z,5.57
2022-09-25T15:31:15.613Z,5.95
2022-09-25T15:33:42.499Z,5.70
2022-09-25T15:36:16.714Z,5.53
2022-09-25T15:41:14.154Z,4.30
2022-09-25T15:43:40.902Z,4.75
2022-09-25T15:46:28.186Z,4.40
2022-09-25T15:48:57.237Z,4.20
2022-09-25T15:51:29.189Z,4.75
2022-09-25T15:53:59.765Z,5.63
2022-09-25T15:56:27.960Z,4.55
2022-09-25T15:58:57.433Z,4.80
2022-09-25T16:01:26.648Z,5.00
2022-09-25T16:03:54.037Z,4.75
2022-09-25T16:06:20.797Z,4.32
2022-09-25T16:08:48.885Z,5.28
2022-09-25T16:11:18.694Z,5.13
2022-09-25T16:13:47.083Z,5.28
2022-09-25T16:16:18.926Z,4.38
2022-09-25T16:18:45.803Z,4.05
2022-09-25T16:21:20.743Z,3.75
2022-09-25T16:23:58.666Z,3.85
2022-09-25T16:26:40.080Z,3.90
2022-09-25T16:29:18.911Z,3.95
2022-09-25T16:31:46.299Z,3.40
2022-09-25T16:34:19.093Z,3.92
2022-09-25T16:36:46.363Z,3.95
2022-09-25T16:39:27.757Z,4.22
2022-09-25T16:41:55.359Z,3.92
2022-09-25T16:44:28.348Z,4.45
2022-09-25T16:47:16.427Z,3.90
2022-09-25T16:49:43.621Z,3.88
2022-09-25T16:52:15.262Z,3.65
2022-09-25T16:54:43.364Z,3.67
2022-09-25T16:57:10.521Z,4.38
2022-09-25T16:59:37.245Z,3.95
2022-09-25T17:02:16.709Z,4.20
2022-09-25T17:04:43.475Z,4.20
2022-09-25T17:07:10.186Z,4.22
2022-09-25T17:09:36.868Z,3.92
2022-09-25T17:12:09.174Z,3.70
2022-09-25T17:14:36.224Z,5.00
2022-09-25T17:17:02.989Z,4.53
2022-09-25T17:19:29.747Z,4.43
2022-09-25T17:21:56.505Z,4.43
2022-09-25T17:24:25.949Z,3.63
2022-09-25T17:26:52.985Z,3.80
2022-09-25T17:29:21.982Z,3.50
2022-09-25T17:31:48.698Z,3.72
2022-09-25T17:34:17.182Z,3.55
2022-09-25T17:36:44.174Z,3.42
2022-09-25T17:39:11.190Z,3.42
2022-09-25T17:41:39.170Z,3.28
2022-09-25T17:44:06.088Z,3.75
2022-09-25T17:46:34.547Z,3.85
2022-09-25T17:49:01.383Z,3.65
2022-09-25T17:51:29.448Z,3.95
2022-09-25T17:53:56.855Z,3.95
2022-09-25T17:56:24.390Z,3.60
2022-09-25T17:58:51.216Z,4.25
2022-09-25T18:01:19.964Z,4.65
2022-09-25T18:03:48.107Z,4.43
2022-09-25T18:06:14.842Z,5.25
2022-09-25T18:08:41.527Z,5.22
2022-09-25T18:11:10.941Z,5.50
2022-09-25T18:13:41.459Z,5.38
2022-09-25T18:16:15.762Z,6.45
2022-09-25T18:18:43.013Z,5.43
2022-09-25T18:21:11.037Z,5.72
2022-09-25T18:23:37.734Z,6.10
2022-09-25T18:26:06.762Z,5.82
2022-09-25T18:28:33.493Z,5.60
2022-09-25T18:31:00.485Z,5.70
2022-09-25T18:33:27.285Z,5.05
2022-09-25T18:35:54.567Z,4.95
2022-09-25T18:38:22.730Z,5.32
2022-09-25T18:40:49.486Z,5.88
2022-09-25T18:43:16.290Z,5.88
2022-09-25T18:45:48.115Z,4.95
2022-09-25T18:48:14.836Z,5.93
2022-09-25T18:50:44.854Z,5.25
2022-09-25T18:53:11.585Z,4.45
2022-09-25T18:55:39.684Z,4.53
2022-09-25T18:58:06.389Z,9.95
2022-09-25T19:00:33.337Z,7.13
2022-09-25T19:03:00.219Z,6.45
2022-09-25T19:05:27.053Z,8.75
2022-09-25T19:07:53.787Z,8.68
2022-09-25T19:10:20.515Z,8.07
2022-09-25T19:12:48.628Z,7.82
2022-09-25T19:15:15.415Z,8.43
2022-09-25T19:17:42.483Z,8.85
2022-09-25T19:20:09.750Z,9.25
2022-09-25T19:22:36.830Z,7.95
2022-09-25T19:25:04.055Z,7.40
2022-09-25T19:27:31.234Z,6.90
2022-09-25T19:29:59.317Z,7.85
2022-09-25T19:32:26.022Z,6.10
2022-09-25T19:34:52.766Z,5.18
2022-09-25T19:37:19.648Z,5.60
2022-09-25T19:39:46.355Z,5.50
2022-09-25T19:42:13.062Z,4.78
2022-09-25T19:44:39.769Z,5.40
2022-09-25T19:47:07.836Z,4.53
2022-09-25T19:49:34.585Z,5.32
2022-09-25T19:52:01.638Z,5.03
2022-09-25T19:54:28.360Z,6.18
2022-09-25T19:56:55.186Z,12.90
2022-09-25T19:59:21.943Z,4.63
2022-09-25T20:01:48.751Z,4.57
2022-09-25T20:04:18.960Z,4.15
2022-09-25T20:06:46.249Z,4.35
2022-09-25T20:09:13.264Z,3.92
2022-09-25T20:11:40.073Z,3.60
2022-09-25T20:14:06.978Z,3.90
2022-09-25T20:16:34.074Z,3.83
2022-09-25T20:19:02.594Z,4.40
2022-09-25T20:21:33.027Z,4.25
2022-09-25T20:24:01.680Z,4.05
2022-09-25T20:26:29.595Z,4.15
2022-09-25T20:28:58.504Z,4.25
2022-09-25T20:31:26.834Z,4.35
2022-09-25T20:33:54.566Z,4.05
2022-09-25T20:36:21.785Z,8.82
2022-09-25T20:38:51.186Z,5.68
2022-09-25T20:41:18.969Z,4.45
2022-09-25T20:43:49.298Z,4.55
2022-09-25T20:46:16.129Z,3.97
2022-09-25T20:48:44.482Z,4.20
2022-09-25T20:51:13.161Z,4.55
2022-09-25T20:53:40.044Z,4.28
2022-09-25T20:56:10.260Z,4.68
2022-09-25T20:58:38.446Z,4.30
2022-09-25T21:01:07.862Z,4.35
2022-09-25T21:03:36.503Z,4.18
2022-09-25T21:06:05.040Z,4.68
2022-09-25T21:08:32.821Z,4.65
2022-09-25T21:11:00.796Z,3.97
2022-09-25T21:13:29.308Z,4.63
2022-09-25T21:16:02.384Z,4.85
2022-09-25T21:18:29.241Z,5.10
2022-09-25T21:20:59.398Z,5.13
2022-09-25T21:23:26.221Z,5.65
2022-09-25T21:25:52.936Z,5.20
2022-09-25T21:28:19.680Z,5.40
2022-09-25T21:30:47.781Z,4.82
2022-09-25T21:33:14.569Z,5.22
2022-09-25T21:35:45.719Z,5.38
2022-09-25T21:38:12.430Z,6.45
2022-09-25T21:40:39.155Z,6.10
2022-09-25T21:43:05.875Z,6.20
2022-09-25T21:45:32.545Z,5.80
2022-09-25T21:48:00.950Z,6.55
2022-09-25T21:50:27.798Z,6.47
2022-09-25T21:52:54.486Z,6.78
2022-09-25T21:55:21.186Z,6.40
2022-09-25T21:57:47.869Z,6.20
2022-09-25T22:00:15.082Z,6.72
2022-09-25T22:02:41.928Z,6.30
2022-09-25T22:05:10.334Z,5.55
2022-09-25T22:07:37.315Z,6.85
2022-09-25T22:10:04.830Z,6.07
2022-09-25T22:12:31.524Z,6.07
2022-09-25T22:14:58.194Z,6.65
2022-09-25T22:17:24.949Z,5.65
2022-09-25T22:19:51.779Z,6.03
2022-09-25T22:22:19.820Z,6.55
2022-09-25T22:24:46.532Z,5.65
2022-09-25T22:27:13.211Z,6.15
2022-09-25T22:29:39.911Z,5.40
2022-09-25T22:32:06.614Z,6.15
2022-09-25T22:34:33.299Z,5.88
2022-09-25T22:37:00.588Z,7.10
2022-09-25T22:39:29.574Z,6.07
2022-09-25T22:41:56.797Z,6.18
2022-09-25T22:44:23.738Z,5.93
2022-09-25T22:46:50.575Z,6.32
2022-09-25T22:49:17.634Z,6.28
2022-09-25T22:51:44.829Z,6.90
2022-09-25T22:54:12.366Z,6.15
2022-09-25T22:56:41.222Z,6.10
2022-09-25T22:59:12.388Z,6.65
2022-09-25T23:01:42.667Z,6.63
2022-09-25T23:04:11.662Z,6.03
2022-09-25T23:06:38.462Z,5.95
2022-09-25T23:09:07.473Z,6.35
2022-09-25T23:11:34.540Z,5.78
2022-09-25T23:14:04.894Z,6.43
2022-09-25T23:16:32.835Z,5.93
2022-09-25T23:19:00.599Z,6.90
2022-09-25T23:21:28.691Z,6.40
2022-09-25T23:23:56.336Z,6.53
2022-09-25T23:26:23.077Z,6.88
2022-09-25T23:28:49.875Z,6.72
2022-09-25T23:31:18.462Z,7.03
2022-09-25T23:33:46.405Z,6.70
2022-09-25T23:36:15.490Z,6.55
2022-09-25T23:38:42.370Z,6.35
2022-09-25T23:41:16.878Z,6.85
2022-09-25T23:43:44.810Z,6.85
2022-09-25T23:46:12.120Z,7.05
2022-09-25T23:48:40.273Z,7.18
2022-09-25T23:51:08.110Z,6.30
2022-09-25T23:53:35.647Z,6.10
2022-09-25T23:56:06.343Z,6.35
2022-09-25T23:58:33.192Z,6.43
